Time;durP1;ratioP1;P1;durP2;ratioP2;P2;SDS_P1;SDS_P2;PMS_P1;PMS_P2;Temp;Humidity;BMP_temperature;BMP_pressure;BME280_temperature;BME280_humidity;BME280_pressure;Samples;Min_cycle;Max_cycle;Signal;HPM_P1;HPM_P2
2024/01/27 00:01:35;;;;;;;5.60;5.10;;;18.60;41.90;;;;;;5026174;28;20231;-68
2024/01/27 00:04:01;;;;;;;7.30;6.53;;;18.50;41.80;;;;;;5025729;28;20229;-71
2024/01/27 00:06:26;;;;;;;6.57;5.60;;;18.60;41.90;;;;;;5030446;28;20835;-72
2024/01/27 00:08:52;;;;;;;6.40;5.80;;;18.60;41.90;;;;;;5026912;28;20421;-69
2024/01/27 00:11:18;;;;;;;5.37;4.70;;;18.60;41.90;;;;;;5013064;28;20706;-71
2024/01/27 00:13:44;;;;;;;6.97;5.13;;;18.50;41.80;;;;;;5016326;28;20230;-71
2024/01/27 00:16:09;;;;;;;6.27;5.47;;;18.60;42.00;;;;;;5020103;28;20227;-71
2024/01/27 00:18:38;;;;;;;5.90;5.50;;;18.50;41.80;;;;;;5018525;28;20548;-71
2024/01/27 00:21:05;;;;;;;5.77;5.00;;;18.60;41.90;;;;;;5027372;28;20327;-71
2024/01/27 00:23:32;;;;;;;6.00;5.60;;;18.60;41.90;;;;;;5024018;28;20458;-71
2024/01/27 00:25:58;;;;;;;6.10;5.60;;;18.50;41.80;;;;;;5016387;28;20511;-72
2024/01/27 00:28:23;;;;;;;5.40;5.03;;;18.50;41.80;;;;;;5019564;28;20479;-71
2024/01/27 00:30:49;;;;;;;5.50;5.00;;;18.50;41.80;;;;;;5014476;28;20451;-71
2024/01/27 00:33:14;;;;;;;5.67;5.00;;;18.50;41.80;;;;;;5019377;28;20226;-69
2024/01/27 00:35:40;;;;;;;4.83;4.43;;;18.50;41.80;;;;;;5007695;28;20226;-74
2024/01/27 00:38:05;;;;;;;5.80;4.70;;;18.50;41.80;;;;;;5019283;28;20222;-74
2024/01/27 00:40:31;;;;;;;4.23;3.93;;;18.50;41.80;;;;;;5024336;28;20222;-69
2024/01/27 00:42:56;;;;;;;5.50;5.00;;;18.50;41.80;;;;;;5008350;28;20753;-70
2024/01/27 00:45:22;;;;;;;5.20;4.80;;;18.50;41.80;;;;;;5017373;28;20673;-70
2024/01/27 00:47:49;;;;;;;5.40;4.90;;;18.50;41.80;;;;;;5014152;28;20284;-69
2024/01/27 00:50:15;;;;;;;5.03;4.67;;;18.50;41.80;;;;;;5011798;28;20724;-69
2024/01/27 00:52:41;;;;;;;4.60;4.30;;;18.50;41.80;;;;;;5026624;28;20446;-68
2024/01/27 00:55:07;;;;;;;4.70;4.30;;;18.50;41.80;;;;;;5021929;28;20215;-69
2024/01/27 00:57:32;;;;;;;5.30;5.00;;;18.50;41.80;;;;;;5026093;28;20234;-69
2024/01/27 00:59:58;;;;;;;4.57;4.17;;;18.50;41.80;;;;;;5019108;28;21184;-68
2024/01/27 01:02:24;;;;;;;4.73;4.33;;;18.50;41.80;;;;;;5008542;28;20215;-70
2024/01/27 01:04:49;;;;;;;3.70;3.50;;;18.50;41.80;;;;;;5013170;28;20699;-69
2024/01/27 01:07:15;;;;;;;4.70;4.30;;;18.50;41.90;;;;;;5020084;28;20241;-71
2024/01/27 01:09:41;;;;;;;4.27;3.97;;;18.50;42.00;;;;;;5010438;28;20587;-69
2024/01/27 01:12:06;;;;;;;5.07;4.30;;;18.50;41.80;;;;;;5026494;28;20441;-68
2024/01/27 01:14:32;;;;;;;6.17;4.53;;;18.50;41.80;;;;;;5019793;28;20222;-72
2024/01/27 01:16:58;;;;;;;4.23;3.93;;;18.50;41.80;;;;;;5020794;28;20301;-71
2024/01/27 01:19:23;;;;;;;4.43;4.13;;;18.50;41.80;;;;;;5017972;28;20229;-74
2024/01/27 01:21:49;;;;;;;5.13;4.63;;;18.50;41.90;;;;;;5010022;28;20215;-71
2024/01/27 01:24:14;;;;;;;4.80;4.40;;;18.50;41.80;;;;;;5020086;28;20218;-71
2024/01/27 01:26:40;;;;;;;4.20;3.90;;;18.50;41.80;;;;;;5011394;28;20252;-71
2024/01/27 01:29:06;;;;;;;3.93;3.63;;;18.50;41.80;;;;;;5029199;28;20291;-71
2024/01/27 01:31:31;;;;;;;4.43;4.03;;;18.50;41.80;;;;;;5029512;28;20273;-71
2024/01/27 01:33:57;;;;;;;4.03;3.73;;;18.50;41.80;;;;;;5023109;28;20324;-71
2024/01/27 01:36:22;;;;;;;3.70;3.50;;;18.50;41.80;;;;;;5017126;28;20587;-71
2024/01/27 01:38:48;;;;;;;4.40;3.97;;;18.50;41.70;;;;;;5013795;28;20225;-71
2024/01/27 01:41:14;;;;;;;4.40;4.00;;;18.50;41.70;;;;;;5018525;28;20221;-71
2024/01/27 01:43:39;;;;;;;4.10;3.80;;;18.50;41.80;;;;;;5021292;28;20218;-71
2024/01/27 01:46:05;;;;;;;4.17;3.87;;;18.50;41.80;;;;;;4994816;28;20241;-71
2024/01/27 01:48:30;;;;;;;4.37;4.07;;;18.50;41.70;;;;;;5009141;28;20552;-71
2024/01/27 01:50:56;;;;;;;4.37;3.87;;;18.50;41.70;;;;;;5021933;28;20681;-69
2024/01/27 01:53:23;;;;;;;4.30;3.97;;;18.50;41.80;;;;;;5022510;28;20265;-69
2024/01/27 01:55:50;;;;;;;3.90;3.60;;;18.50;41.70;;;;;;5027745;28;20639;-69
2024/01/27 01:58:16;;;;;;;3.80;3.60;;;18.50;41.70;;;;;;5016192;28;20468;-70
2024/01/27 02:00:42;;;;;;;3.37;3.17;;;18.50;41.70;;;;;;5023495;28;20557;-69
2024/01/27 02:03:13;;;;;;;3.60;3.40;;;18.50;41.70;;;;;;5025723;28;20475;-70
2024/01/27 02:05:39;;;;;;;4.73;3.20;;;18.50;41.70;;;;;;5029407;28;20707;-69
2024/01/27 02:08:05;;;;;;;3.67;3.47;;;18.50;41.70;;;;;;5032042;28;20475;-71
2024/01/27 02:10:36;;;;;;;4.63;4.13;;;18.50;41.70;;;;;;5022673;28;20864;-71
2024/01/27 02:13:03;;;;;;;3.80;3.50;;;18.50;41.70;;;;;;5069484;28;20222;-69
2024/01/27 02:15:29;;;;;;;3.50;3.30;;;18.50;41.80;;;;;;5067796;28;20437;-70
2024/01/27 02:17:54;;;;;;;4.27;3.87;;;18.50;41.80;;;;;;5032703;28;20425;-70
2024/01/27 02:20:20;;;;;;;3.30;3.03;;;18.50;41.70;;;;;;5020187;28;20659;-69
2024/01/27 02:22:45;;;;;;;5.50;3.07;;;18.50;41.80;;;;;;5010005;28;20222;-69
2024/01/27 02:25:11;;;;;;;3.40;3.17;;;18.50;41.80;;;;;;5019138;28;20434;-69
2024/01/27 02:27:36;;;;;;;3.73;3.43;;;18.50;41.70;;;;;;5020304;28;20312;-69
2024/01/27 02:30:02;;;;;;;4.40;4.03;;;18.50;41.70;;;;;;5019337;28;20710;-70
2024/01/27 02:32:28;;;;;;;3.63;3.43;;;18.50;41.70;;;;;;5026761;28;20296;-70
2024/01/27 02:34:53;;;;;;;3.10;2.90;;;18.50;41.70;;;;;;5014197;28;20687;-70
2024/01/27 02:37:19;;;;;;;3.50;3.20;;;18.50;41.70;;;;;;5034420;28;20226;-70
2024/01/27 02:39:45;;;;;;;3.43;3.07;;;18.50;41.80;;;;;;5017057;28;20227;-70
2024/01/27 02:42:10;;;;;;;3.43;3.23;;;18.50;41.80;;;;;;5013915;28;20300;-70
2024/01/27 02:44:36;;;;;;;3.90;3.60;;;18.50;41.70;;;;;;5016717;28;20231;-70
2024/01/27 02:47:01;;;;;;;3.53;3.27;;;18.50;41.70;;;;;;5006315;28;20219;-70
2024/01/27 02:49:27;;;;;;;3.73;3.43;;;18.50;41.70;;;;;;5029818;28;20218;-70
2024/01/27 02:51:52;;;;;;;4.03;3.70;;;18.50;41.70;;;;;;5017521;28;20218;-70
2024/01/27 02:54:18;;;;;;;3.30;3.10;;;18.40;41.60;;;;;;5015040;28;20265;-70
2024/01/27 02:56:43;;;;;;;3.63;3.43;;;18.40;41.70;;;;;;5013660;28;21171;-70
2024/01/27 02:59:11;;;;;;;3.20;3.00;;;18.50;41.70;;;;;;5010018;28;20713;-70
2024/01/27 03:01:36;;;;;;;3.50;3.30;;;18.50;41.70;;;;;;5019547;28;20218;-70
2024/01/27 03:04:03;;;;;;;3.00;2.80;;;18.50;41.70;;;;;;5022303;28;20470;-69
2024/01/27 03:06:29;;;;;;;3.17;2.97;;;18.50;41.70;;;;;;5028189;28;20264;-71
2024/01/27 03:08:55;;;;;;;3.73;3.43;;;18.50;41.80;;;;;;5013958;28;20432;-70
2024/01/27 03:11:21;;;;;;;3.33;3.03;;;18.50;41.70;;;;;;5010862;28;20220;-70
2024/01/27 03:13:47;;;;;;;3.60;3.40;;;18.40;41.60;;;;;;5014149;28;20258;-68
2024/01/27 03:16:13;;;;;;;2.70;2.50;;;18.50;41.70;;;;;;5011420;28;20886;-69
2024/01/27 03:18:38;;;;;;;3.40;3.20;;;18.50;41.70;;;;;;5016215;28;20658;-70
2024/01/27 03:21:07;;;;;;;3.10;2.80;;;18.50;41.70;;;;;;5044791;28;20524;-68
2024/01/27 03:23:32;;;;;;;2.93;2.73;;;18.50;41.60;;;;;;5014375;28;20766;-70
2024/01/27 03:25:58;;;;;;;3.80;2.90;;;18.50;41.70;;;;;;5007453;28;20439;-69
2024/01/27 03:28:23;;;;;;;2.87;2.67;;;18.50;41.60;;;;;;5018321;28;20245;-69
2024/01/27 03:30:49;;;;;;;3.03;2.83;;;18.40;41.70;;;;;;4999558;28;20218;-71
2024/01/27 03:33:14;;;;;;;3.20;2.53;;;18.40;41.60;;;;;;5044465;28;21462;-69
2024/01/27 03:35:40;;;;;;;3.60;3.40;;;18.40;41.60;;;;;;5010478;28;20218;-70
2024/01/27 03:38:06;;;;;;;2.70;2.50;;;18.40;41.60;;;;;;5018335;28;20225;-69
2024/01/27 03:40:31;;;;;;;3.40;3.20;;;18.40;41.60;;;;;;5016752;28;20223;-70
2024/01/27 03:42:57;;;;;;;3.20;2.77;;;18.40;41.60;;;;;;5016627;28;20705;-68
2024/01/27 03:45:22;;;;;;;2.80;2.60;;;18.40;41.70;;;;;;5011669;28;20552;-68
2024/01/27 03:47:48;;;;;;;3.53;3.30;;;18.40;41.60;;;;;;5023435;28;20230;-68
2024/01/27 03:50:13;;;;;;;3.00;2.70;;;18.40;41.60;;;;;;5014938;28;20879;-67
2024/01/27 03:52:39;;;;;;;3.50;3.23;;;18.40;41.60;;;;;;5017308;28;20705;-69
2024/01/27 03:55:05;;;;;;;2.73;2.57;;;18.40;41.60;;;;;;5015537;28;20222;-68
2024/01/27 03:57:31;;;;;;;3.07;2.87;;;18.40;41.70;;;;;;5012513;28;20223;-68
2024/01/27 03:59:56;;;;;;;2.90;2.70;;;18.40;41.60;;;;;;5014534;28;20431;-69
2024/01/27 04:02:22;;;;;;;3.40;3.10;;;18.40;41.60;;;;;;5016411;28;20234;-69
2024/01/27 04:04:48;;;;;;;2.70;2.50;;;18.40;41.60;;;;;;5027299;28;20226;-68
2024/01/27 04:07:13;;;;;;;2.90;2.60;;;18.40;41.60;;;;;;5017459;28;20724;-68
2024/01/27 04:09:39;;;;;;;2.83;2.63;;;18.40;41.60;;;;;;5022062;28;20229;-71
2024/01/27 04:12:04;;;;;;;2.83;2.63;;;18.40;41.70;;;;;;5014141;28;20714;-73
2024/01/27 04:14:30;;;;;;;2.47;2.30;;;18.40;41.60;;;;;;5027707;28;20249;-71
2024/01/27 04:16:56;;;;;;;2.70;2.43;;;18.40;41.60;;;;;;5010682;28;20296;-72
2024/01/27 04:19:21;;;;;;;2.43;2.33;;;18.40;41.60;;;;;;5047706;28;20225;-73
2024/01/27 04:21:47;;;;;;;2.67;2.47;;;18.40;41.70;;;;;;5034215;28;20897;-73
2024/01/27 04:24:12;;;;;;;2.60;2.43;;;18.40;41.60;;;;;;5033611;28;20221;-70
2024/01/27 04:26:38;;;;;;;2.50;2.27;;;18.40;41.60;;;;;;5019021;28;20223;-73
2024/01/27 04:29:03;;;;;;;2.40;2.30;;;18.40;41.60;;;;;;5013828;28;20245;-73
2024/01/27 04:31:31;;;;;;;2.60;2.40;;;18.40;41.70;;;;;;5010148;28;20226;-73
2024/01/27 04:33:56;;;;;;;2.87;2.30;;;18.40;41.60;;;;;;5020353;28;20300;-71
2024/01/27 04:36:29;;;;;;;2.60;2.50;;;18.40;41.60;;;;;;5023100;28;20417;-73
2024/01/27 04:38:55;;;;;;;2.80;2.60;;;18.40;41.60;;;;;;5031855;28;20230;-72
2024/01/27 04:41:20;;;;;;;2.90;2.70;;;18.40;41.60;;;;;;5029239;28;20584;-70
2024/01/27 04:43:46;;;;;;;2.30;2.10;;;18.40;41.60;;;;;;5019368;28;20651;-73
2024/01/27 04:46:11;;;;;;;2.97;2.73;;;18.40;41.50;;;;;;5015035;28;20313;-72
2024/01/27 04:48:37;;;;;;;2.40;2.30;;;18.40;41.60;;;;;;5022075;28;20243;-72
2024/01/27 04:51:03;;;;;;;2.50;2.30;;;18.40;41.50;;;;;;5012756;28;20783;-70
2024/01/27 04:53:28;;;;;;;3.13;2.93;;;18.40;41.50;;;;;;5020407;28;20238;-68
2024/01/27 04:55:54;;;;;;;2.80;2.60;;;18.50;41.50;;;;;;5017486;28;20242;-69
2024/01/27 04:58:19;;;;;;;3.17;2.57;;;18.40;41.50;;;;;;5018000;28;20459;-69
2024/01/27 05:00:45;;;;;;;2.93;2.73;;;18.40;41.50;;;;;;5018495;28;20703;-68
2024/01/27 05:03:13;;;;;;;2.63;2.43;;;18.50;41.60;;;;;;5013801;28;20219;-68
2024/01/27 05:05:41;;;;;;;4.37;2.80;;;18.40;41.40;;;;;;5019881;28;20226;-69
2024/01/27 05:08:06;;;;;;;2.40;2.20;;;18.50;41.50;;;;;;5034480;28;21315;-68
2024/01/27 05:10:32;;;;;;;2.50;2.30;;;18.50;41.40;;;;;;5051138;28;20459;-68
2024/01/27 05:12:58;;;;;;;2.13;2.03;;;18.50;41.50;;;;;;5030396;28;20269;-69
2024/01/27 05:15:23;;;;;;;2.47;2.27;;;18.50;41.40;;;;;;5010217;28;20362;-75
2024/01/27 05:17:49;;;;;;;2.00;1.90;;;18.50;41.40;;;;;;5005189;28;20222;-71
2024/01/27 05:20:14;;;;;;;2.33;2.13;;;18.50;41.40;;;;;;5011791;28;20226;-69
2024/01/27 05:22:40;;;;;;;2.17;1.97;;;18.50;41.40;;;;;;5048068;28;20229;-68
2024/01/27 05:25:06;;;;;;;2.43;2.30;;;18.50;41.40;;;;;;5016715;28;20686;-69
2024/01/27 05:27:31;;;;;;;2.67;2.47;;;18.50;42.20;;;;;;5012530;28;20733;-70
2024/01/27 05:29:57;;;;;;;3.07;2.40;;;18.50;41.30;;;;;;5016360;28;20459;-71
2024/01/27 05:32:23;;;;;;;2.27;2.17;;;18.50;41.30;;;;;;5019465;28;20235;-71
2024/01/27 05:34:49;;;;;;;2.20;2.00;;;18.50;41.30;;;;;;5019511;28;20451;-71
2024/01/27 05:37:14;;;;;;;2.40;2.00;;;18.50;41.30;;;;;;5019666;28;20246;-71
2024/01/27 05:39:40;;;;;;;2.53;2.33;;;18.50;41.30;;;;;;5027184;28;20812;-75
2024/01/27 05:42:06;;;;;;;2.00;1.90;;;18.50;41.30;;;;;;5031132;28;20241;-72
2024/01/27 05:44:32;;;;;;;2.23;2.13;;;18.50;41.30;;;;;;5011684;28;20447;-71
2024/01/27 05:46:57;;;;;;;2.50;2.30;;;18.50;41.20;;;;;;5010243;28;20935;-73
2024/01/27 05:49:23;;;;;;;2.37;2.20;;;18.50;41.30;;;;;;5017973;28;20750;-71
2024/01/27 05:51:50;;;;;;;2.40;2.20;;;18.50;41.30;;;;;;5020671;28;20776;-70
2024/01/27 05:54:16;;;;;;;4.23;2.50;;;18.50;41.20;;;;;;5030118;28;20218;-70
2024/01/27 05:56:42;;;;;;;2.10;2.00;;;18.50;41.20;;;;;;5030882;28;20478;-70
2024/01/27 05:59:07;;;;;;;2.30;2.13;;;18.50;41.30;;;;;;5012613;28;20521;-70
2024/01/27 06:01:33;;;;;;;2.07;1.97;;;18.50;41.20;;;;;;5021428;28;20334;-70
2024/01/27 06:03:58;;;;;;;2.27;2.17;;;18.50;41.20;;;;;;5015095;28;20340;-68
2024/01/27 06:06:24;;;;;;;2.23;2.13;;;18.50;41.20;;;;;;5018011;28;20233;-67
2024/01/27 06:08:50;;;;;;;2.63;2.43;;;18.50;41.20;;;;;;5025747;28;20685;-67
2024/01/27 06:11:24;;;;;;;2.30;2.10;;;18.50;41.20;;;;;;5025724;28;20302;-68
2024/01/27 06:13:49;;;;;;;2.13;2.00;;;18.50;41.10;;;;;;5023461;28;20229;-67
2024/01/27 06:16:17;;;;;;;2.60;2.40;;;18.50;41.20;;;;;;5012452;28;20450;-68
2024/01/27 06:18:42;;;;;;;2.30;2.10;;;18.50;41.20;;;;;;5031478;28;20307;-69
2024/01/27 06:21:08;;;;;;;2.00;1.90;;;18.50;41.20;;;;;;5029350;28;20483;-69
2024/01/27 06:23:34;;;;;;;2.00;1.90;;;18.50;41.20;;;;;;5022165;28;20226;-67
2024/01/27 06:26:03;;;;;;;1.80;1.70;;;18.50;41.10;;;;;;5024825;28;20517;-67
2024/01/27 06:28:29;;;;;;;2.30;2.17;;;18.50;41.20;;;;;;5035293;28;20257;-68
2024/01/27 06:30:55;;;;;;;1.90;1.80;;;18.50;41.10;;;;;;5028246;28;20525;-67
2024/01/27 06:33:20;;;;;;;1.80;1.70;;;18.50;41.10;;;;;;5024258;28;20234;-67
2024/01/27 06:35:46;;;;;;;2.33;2.13;;;18.50;41.10;;;;;;5025398;28;20938;-67
2024/01/27 06:38:11;;;;;;;3.00;2.27;;;18.50;41.10;;;;;;5018874;28;20232;-67
2024/01/27 06:40:37;;;;;;;2.00;1.90;;;18.50;41.10;;;;;;5015074;28;20219;-72
2024/01/27 06:43:02;;;;;;;1.93;1.83;;;18.50;41.10;;;;;;5010962;28;20219;-72
2024/01/27 06:45:28;;;;;;;2.57;2.40;;;18.50;41.20;;;;;;5022400;28;20233;-72
2024/01/27 06:47:53;;;;;;;2.10;2.00;;;18.50;41.10;;;;;;5014812;28;20368;-72
2024/01/27 06:50:19;;;;;;;2.00;1.90;;;18.50;41.10;;;;;;5010595;28;20245;-72
2024/01/27 06:52:45;;;;;;;2.50;2.30;;;18.50;41.10;;;;;;5028723;28;20226;-72
2024/01/27 06:55:11;;;;;;;2.00;1.80;;;18.50;41.10;;;;;;5027806;28;20261;-70
2024/01/27 06:57:37;;;;;;;2.00;1.80;;;18.50;41.10;;;;;;5016868;28;20483;-73
2024/01/27 07:00:03;;;;;;;2.20;2.10;;;18.50;41.10;;;;;;5019836;28;20293;-74
2024/01/27 07:02:28;;;;;;;2.17;2.07;;;18.50;41.10;;;;;;5025091;28;20305;-72
2024/01/27 07:04:55;;;;;;;2.27;2.07;;;18.50;41.10;;;;;;5009509;28;20222;-72
2024/01/27 07:07:25;;;;;;;2.13;1.97;;;18.50;41.10;;;;;;5025277;28;20272;-72
2024/01/27 07:09:51;;;;;;;1.90;1.70;;;18.50;41.10;;;;;;5030187;28;20425;-70
2024/01/27 07:12:16;;;;;;;2.70;2.50;;;18.50;41.10;;;;;;5048263;28;20446;-69
2024/01/27 07:14:42;;;;;;;2.40;2.30;;;18.50;41.10;;;;;;5013754;28;20438;-68
2024/01/27 07:17:07;;;;;;;2.20;1.80;;;18.50;41.00;;;;;;5017382;28;20595;-67
2024/01/27 07:19:33;;;;;;;2.20;1.97;;;18.50;41.00;;;;;;5030391;28;20831;-69
2024/01/27 07:22:03;;;;;;;2.00;1.90;;;18.50;41.00;;;;;;5026912;28;20739;-67
2024/01/27 07:24:29;;;;;;;1.97;1.87;;;18.50;41.00;;;;;;5028225;28;20218;-68
2024/01/27 07:26:55;;;;;;;1.80;1.70;;;18.50;41.00;;;;;;5028815;28;20491;-67
2024/01/27 07:29:20;;;;;;;1.67;1.57;;;18.50;41.00;;;;;;5025713;28;20730;-68
2024/01/27 07:31:46;;;;;;;2.13;2.03;;;18.50;41.00;;;;;;5023906;28;20214;-67
2024/01/27 07:34:12;;;;;;;2.00;1.80;;;18.50;41.00;;;;;;5024839;28;20226;-70
2024/01/27 07:36:37;;;;;;;1.90;1.80;;;18.50;40.90;;;;;;5030165;28;20591;-68
2024/01/27 07:39:04;;;;;;;2.20;2.00;;;18.50;40.90;;;;;;5028847;28;20221;-68
2024/01/27 07:41:30;;;;;;;1.80;1.70;;;18.50;41.00;;;;;;5025395;28;20222;-72
2024/01/27 07:43:56;;;;;;;4.07;2.47;;;18.60;41.00;;;;;;5030502;28;20441;-72
2024/01/27 07:46:22;;;;;;;1.73;1.63;;;18.60;41.00;;;;;;5024609;28;20495;-73
2024/01/27 07:48:48;;;;;;;2.57;1.90;;;18.60;41.00;;;;;;5023239;28;20237;-72
2024/01/27 07:51:15;;;;;;;1.70;1.50;;;18.60;40.90;;;;;;5021482;28;20487;-74
2024/01/27 07:53:41;;;;;;;1.77;1.67;;;18.50;40.80;;;;;;5022182;28;20942;-72
2024/01/27 07:56:07;;;;;;;1.97;1.87;;;18.60;40.90;;;;;;5028623;28;20441;-72
2024/01/27 07:58:33;;;;;;;3.03;1.87;;;18.50;40.80;;;;;;5032047;28;20293;-73
2024/01/27 08:00:59;;;;;;;2.10;1.93;;;18.60;40.90;;;;;;5028119;28;20954;-72
2024/01/27 08:03:24;;;;;;;5.70;2.17;;;18.50;40.80;;;;;;5034881;28;20414;-71
2024/01/27 08:05:50;;;;;;;2.00;1.90;;;18.50;40.80;;;;;;5035783;28;20214;-71
2024/01/27 08:08:16;;;;;;;2.20;2.00;;;18.50;40.80;;;;;;5042117;28;20218;-71
2024/01/27 08:10:41;;;;;;;1.70;1.60;;;18.60;41.00;;;;;;5023167;28;20215;-73
2024/01/27 08:13:07;;;;;;;1.97;1.87;;;18.60;40.90;;;;;;5023779;28;20701;-73
2024/01/27 08:15:33;;;;;;;2.27;2.10;;;18.50;40.90;;;;;;5018620;28;20222;-72
2024/01/27 08:17:58;;;;;;;2.30;2.10;;;18.50;40.80;;;;;;5028295;28;20964;-69
2024/01/27 08:20:24;;;;;;;2.00;1.90;;;18.50;40.80;;;;;;5035284;28;20237;-71
2024/01/27 08:22:51;;;;;;;2.10;1.97;;;18.50;40.80;;;;;;5020053;28;20222;-71
2024/01/27 08:25:17;;;;;;;2.73;2.53;;;18.60;40.90;;;;;;5031569;28;20708;-72
2024/01/27 08:27:43;;;;;;;2.43;2.27;;;18.50;40.90;;;;;;5008031;28;20444;-71
2024/01/27 08:30:10;;;;;;;2.50;1.83;;;18.60;40.90;;;;;;5022377;28;20450;-71
2024/01/27 08:32:35;;;;;;;2.97;2.57;;;18.60;40.90;;;;;;5031634;28;20238;-70
2024/01/27 08:35:01;;;;;;;1.90;1.80;;;18.50;40.80;;;;;;5030193;28;20446;-71
2024/01/27 08:37:27;;;;;;;2.10;2.00;;;18.50;40.90;;;;;;5039439;28;20698;-71
2024/01/27 08:39:52;;;;;;;2.37;2.17;;;18.60;40.90;;;;;;5021206;28;20331;-71
2024/01/27 08:42:18;;;;;;;2.50;2.30;;;18.60;41.00;;;;;;5032029;28;20250;-71
2024/01/27 08:44:44;;;;;;;2.27;2.07;;;18.60;41.00;;;;;;5024217;28;20276;-70
2024/01/27 08:47:09;;;;;;;2.20;2.00;;;18.60;41.00;;;;;;5016359;28;20234;-71
2024/01/27 08:49:35;;;;;;;2.27;1.80;;;18.50;40.90;;;;;;5038171;28;20768;-71
2024/01/27 08:52:00;;;;;;;2.07;1.80;;;18.60;41.00;;;;;;5029638;28;20226;-70
2024/01/27 08:54:26;;;;;;;2.30;2.10;;;18.50;40.80;;;;;;5022337;28;20221;-72
2024/01/27 08:56:51;;;;;;;2.50;2.30;;;18.60;41.00;;;;;;5021718;28;20252;-71
2024/01/27 08:59:17;;;;;;;1.83;1.73;;;18.60;40.90;;;;;;5014398;28;20242;-70
2024/01/27 09:01:42;;;;;;;2.30;2.10;;;18.60;40.90;;;;;;5034182;28;20222;-73
2024/01/27 09:04:09;;;;;;;2.40;2.20;;;18.60;40.90;;;;;;5027573;28;20691;-74
2024/01/27 09:06:34;;;;;;;3.00;2.73;;;18.60;41.00;;;;;;5014285;28;20243;-74
2024/01/27 09:09:00;;;;;;;2.40;1.97;;;18.50;40.80;;;;;;5022865;28;20439;-74
2024/01/27 09:11:29;;;;;;;2.70;2.50;;;18.60;41.00;;;;;;5020218;28;20337;-70
2024/01/27 09:13:56;;;;;;;2.00;1.80;;;18.60;40.90;;;;;;5024362;28;20651;-71
2024/01/27 09:16:21;;;;;;;1.90;1.80;;;18.60;40.90;;;;;;5030373;28;20476;-74
2024/01/27 09:18:49;;;;;;;2.53;2.30;;;18.60;41.00;;;;;;5029318;28;20482;-75
2024/01/27 09:21:20;;;;;;;3.20;1.97;;;18.60;40.90;;;;;;5026006;28;20904;-73
2024/01/27 09:23:46;;;;;;;2.90;2.60;;;18.60;40.90;;;;;;5037214;28;20525;-72
2024/01/27 09:26:12;;;;;;;2.70;2.10;;;18.60;41.00;;;;;;5020560;28;20518;-71
2024/01/27 09:28:38;;;;;;;2.37;2.17;;;18.60;41.00;;;;;;5034523;28;20508;-75
2024/01/27 09:31:04;;;;;;;2.30;2.10;;;18.60;40.90;;;;;;5029936;28;21228;-69
2024/01/27 09:33:29;;;;;;;2.10;2.00;;;18.60;40.90;;;;;;5024224;28;20235;-68
2024/01/27 09:35:55;;;;;;;2.90;2.50;;;18.60;40.90;;;;;;5020288;28;20254;-70
2024/01/27 09:38:21;;;;;;;2.10;1.90;;;18.60;40.80;;;;;;5059166;28;20309;-69
2024/01/27 09:40:47;;;;;;;2.20;2.00;;;18.60;40.90;;;;;;5020768;28;20313;-69
2024/01/27 09:43:14;;;;;;;2.37;2.17;;;18.60;40.90;;;;;;5020151;28;20245;-69
2024/01/27 09:45:40;;;;;;;1.90;1.80;;;18.60;40.90;;;;;;5034298;28;20438;-68
2024/01/27 09:48:09;;;;;;;2.53;2.33;;;18.60;40.90;;;;;;5034678;28;20803;-68
2024/01/27 09:50:34;;;;;;;1.90;1.80;;;18.60;40.90;;;;;;5023635;28;20269;-68
2024/01/27 09:53:00;;;;;;;3.17;2.10;;;18.60;40.90;;;;;;5023736;28;20445;-72
2024/01/27 09:55:26;;;;;;;2.20;1.73;;;18.60;40.90;;;;;;5030906;28;20230;-70
2024/01/27 09:57:52;;;;;;;2.00;1.80;;;18.60;40.90;;;;;;5055597;28;20324;-69
2024/01/27 10:00:18;;;;;;;2.50;1.93;;;18.60;40.90;;;;;;5025798;28;20226;-69
2024/01/27 10:02:46;;;;;;;2.00;1.90;;;18.60;40.90;;;;;;5022619;28;20661;-68
2024/01/27 10:05:12;;;;;;;2.20;2.10;;;18.60;40.90;;;;;;5018283;28;20478;-69
2024/01/27 10:07:39;;;;;;;2.40;2.20;;;18.60;40.90;;;;;;5019180;28;20422;-67
2024/01/27 10:10:05;;;;;;;1.93;1.83;;;18.60;40.80;;;;;;5033504;28;21107;-71
2024/01/27 10:12:32;;;;;;;1.97;1.87;;;18.60;40.80;;;;;;5018256;28;20458;-70
2024/01/27 10:14:57;;;;;;;3.37;1.80;;;18.60;40.80;;;;;;5032621;28;20467;-71
2024/01/27 10:17:28;;;;;;;2.20;2.10;;;18.60;40.80;;;;;;5006058;28;20414;-69
2024/01/27 10:20:04;;;;;;;2.07;1.90;;;18.60;40.80;;;;;;5023602;28;20231;-69
2024/01/27 10:22:39;;;;;;;8.83;2.80;;;18.60;40.80;;;;;;5022743;28;20521;-68
2024/01/27 10:25:07;;;;;;;2.07;1.87;;;18.60;40.80;;;;;;5021362;28;20439;-69
2024/01/27 10:27:32;;;;;;;5.00;2.07;;;18.70;40.90;;;;;;5034262;28;20479;-68
2024/01/27 10:29:58;;;;;;;2.30;2.10;;;18.70;40.80;;;;;;5014649;28;20443;-71
2024/01/27 10:32:23;;;;;;;3.13;2.20;;;18.70;40.90;;;;;;5019933;28;20261;-70
2024/01/27 10:35:00;;;;;;;4.33;2.20;;;18.70;40.80;;;;;;5035901;28;20289;-74
2024/01/27 10:37:26;;;;;;;13.40;3.03;;;18.70;40.80;;;;;;5021826;28;20232;-71
2024/01/27 10:40:00;;;;;;;8.70;3.33;;;18.70;40.80;;;;;;5010412;28;21921;-71
2024/01/27 10:42:28;;;;;;;6.90;3.03;;;18.80;40.80;;;;;;5012656;28;20227;-71
2024/01/27 10:45:00;;;;;;;6.07;2.13;;;18.70;40.80;;;;;;5015034;28;20418;-70
2024/01/27 10:47:30;;;;;;;8.17;2.90;;;18.70;40.90;;;;;;5017020;28;20465;-70
2024/01/27 10:50:46;;;;;;;10.20;3.10;;;18.70;40.80;;;;;;5015551;28;20502;-70
2024/01/27 10:54:02;;;;;;;10.13;2.97;;;18.70;40.90;;;;;;5016427;28;21973;-71
2024/01/27 10:57:18;;;;;;;11.43;3.27;;;18.80;41.00;;;;;;5013479;28;20770;-71
2024/01/27 11:00:33;;;;;;;8.30;2.37;;;18.70;40.90;;;;;;5017282;28;20712;-71
2024/01/27 11:03:48;;;;;;;5.63;2.50;;;18.70;41.00;;;;;;5017263;28;20441;-69
2024/01/27 11:07:05;;;;;;;8.30;3.20;;;18.80;41.00;;;;;;5014521;28;20559;-69
2024/01/27 11:09:56;;;;;;;6.17;2.47;;;18.80;41.00;;;;;;5016755;28;20503;-70
2024/01/27 11:12:23;;;;;;;9.63;2.97;;;18.70;41.00;;;;;;5018557;28;20838;-69
2024/01/27 11:14:50;;;;;;;9.23;2.53;;;18.80;41.10;;;;;;5023868;28;20414;-69
2024/01/27 11:17:16;;;;;;;10.83;2.67;;;18.80;41.10;;;;;;5024669;28;20422;-69
2024/01/27 11:19:42;;;;;;;4.70;2.47;;;18.80;41.10;;;;;;5027938;28;20423;-69
2024/01/27 11:22:08;;;;;;;7.37;2.83;;;18.80;41.10;;;;;;5017564;28;20791;-69
2024/01/27 11:24:33;;;;;;;9.10;2.23;;;18.80;41.10;;;;;;5024359;28;20221;-69
2024/01/27 11:27:03;;;;;;;3.03;2.50;;;18.80;41.20;;;;;;5019754;28;20222;-69
2024/01/27 11:29:31;;;;;;;5.33;2.50;;;18.80;41.20;;;;;;5032855;28;20226;-69
2024/01/27 11:31:59;;;;;;;2.90;2.57;;;18.80;41.20;;;;;;5031209;28;21010;-69
2024/01/27 11:34:25;;;;;;;4.60;2.57;;;18.80;41.20;;;;;;5036224;28;21613;-70
2024/01/27 11:36:50;;;;;;;4.73;2.73;;;18.80;41.20;;;;;;5028944;28;20449;-70
2024/01/27 11:39:29;;;;;;;2.33;2.13;;;18.80;41.10;;;;;;5018288;28;20655;-70
2024/01/27 11:42:15;;;;;;;6.20;2.10;;;18.80;41.10;;;;;;5029816;28;20242;-70
2024/01/27 11:44:42;;;;;;;9.23;2.50;;;18.80;41.10;;;;;;5024647;28;20480;-70
2024/01/27 11:47:15;;;;;;;3.27;2.93;;;18.80;41.10;;;;;;5017511;28;20459;-70
2024/01/27 11:49:42;;;;;;;5.57;2.10;;;18.80;41.10;;;;;;5031480;28;20434;-69
2024/01/27 11:52:07;;;;;;;2.67;2.07;;;18.80;41.20;;;;;;5018400;28;20509;-69
2024/01/27 11:54:33;;;;;;;7.07;2.40;;;18.80;41.10;;;;;;5023197;28;21000;-67
2024/01/27 11:56:58;;;;;;;2.07;1.87;;;18.80;41.10;;;;;;5023986;28;20318;-68
2024/01/27 11:59:24;;;;;;;6.10;2.13;;;18.80;41.10;;;;;;5027043;28;20257;-70
2024/01/27 12:01:50;;;;;;;3.10;2.17;;;18.80;41.10;;;;;;5022771;28;20230;-69
2024/01/27 12:04:16;;;;;;;7.27;1.80;;;18.80;41.00;;;;;;5017544;28;20285;-70
2024/01/27 12:06:43;;;;;;;3.60;2.40;;;18.80;41.00;;;;;;5020148;28;20226;-70
2024/01/27 12:09:11;;;;;;;3.67;2.47;;;18.90;41.00;;;;;;5018383;28;20598;-70
2024/01/27 12:11:39;;;;;;;3.83;2.23;;;18.90;41.10;;;;;;5018288;28;20903;-68
2024/01/27 12:14:04;;;;;;;3.90;1.90;;;18.90;41.10;;;;;;5018627;28;20431;-71
2024/01/27 12:16:30;;;;;;;4.03;2.07;;;18.90;41.10;;;;;;5022823;28;20504;-68
2024/01/27 12:18:56;;;;;;;7.63;1.80;;;18.90;41.10;;;;;;5019634;28;20277;-70
2024/01/27 12:21:21;;;;;;;3.10;1.73;;;18.90;41.10;;;;;;5024982;28;20686;-72
2024/01/27 12:23:52;;;;;;;4.03;1.83;;;18.80;41.10;;;;;;5026919;28;20245;-68
2024/01/27 12:26:17;;;;;;;2.60;2.13;;;18.80;41.20;;;;;;5016066;28;20187;-68
2024/01/27 12:28:47;;;;;;;3.63;1.80;;;18.90;43.70;;;;;;5014677;28;20810;-69
2024/01/27 12:31:14;;;;;;;2.30;2.00;;;18.80;52.50;;;;;;5026323;28;20289;-73
2024/01/27 12:33:42;;;;;;;5.67;2.00;;;18.90;46.80;;;;;;5016811;28;20464;-68
2024/01/27 12:36:08;;;;;;;1.90;1.70;;;18.90;49.10;;;;;;5026057;28;20974;-69
2024/01/27 12:38:33;;;;;;;2.47;1.50;;;18.80;52.10;;;;;;5032349;28;20438;-68
2024/01/27 12:40:59;;;;;;;2.20;1.77;;;18.80;41.00;;;;;;5022952;28;20434;-68
2024/01/27 12:43:24;;;;;;;2.27;1.60;;;18.90;41.00;;;;;;5031428;28;20745;-68
2024/01/27 12:45:50;;;;;;;1.93;1.77;;;18.90;41.10;;;;;;5038651;28;20223;-70